createdAt,value
2018-12-22T00:01:52.100Z,99469.01
2018-12-22T00:04:22.521Z,99468.45
2018-12-22T00:06:53.862Z,99463.81
2018-12-22T00:09:24.344Z,99473.91
2018-12-22T00:11:54.899Z,99470.88
2018-12-22T00:14:25.388Z,99468.05
2018-12-22T00:16:57.831Z,99479.70
2018-12-22T00:19:28.312Z,99479.31
2018-12-22T00:21:58.823Z,99473.69
2018-12-22T00:24:29.302Z,99459.98
2018-12-22T00:26:59.786Z,99477.83
2018-12-22T00:29:30.663Z,99473.22
2018-12-22T00:32:01.728Z,99473.69
2018-12-22T00:34:32.368Z,99486.52
2018-12-22T00:37:03.087Z,99484.25
2018-12-22T00:39:33.554Z,99481.95
2018-12-22T00:42:04.071Z,99478.00
2018-12-22T00:44:34.593Z,99497.42
2018-12-22T00:47:05.336Z,99481.78
2018-12-22T00:49:35.867Z,99470.95
2018-12-22T00:52:06.424Z,99485.63
2018-12-22T00:54:36.914Z,99481.78
2018-12-22T00:57:07.355Z,99479.70
2018-12-22T00:59:37.843Z,99477.08
2018-12-22T01:02:08.351Z,99475.55
2018-12-22T01:04:38.882Z,99480.63
2018-12-22T01:07:09.424Z,99479.30
2018-12-22T01:09:39.910Z,99486.84
2018-12-22T01:12:10.594Z,99487.20
2018-12-22T01:14:41.096Z,99489.64
2018-12-22T01:17:11.711Z,99478.41
2018-12-22T01:19:42.948Z,99479.62
2018-12-22T01:22:13.447Z,99486.20
2018-12-22T01:24:43.874Z,99492.69
2018-12-22T01:27:16.423Z,99487.69
2018-12-22T01:29:46.988Z,99484.33
2018-12-22T01:32:17.602Z,99495.59
2018-12-22T01:34:48.049Z,99489.94
2018-12-22T01:37:18.681Z,99492.06
2018-12-22T01:39:49.180Z,99500.81
2018-12-22T01:42:19.709Z,99502.02
2018-12-22T01:44:50.825Z,99503.28
2018-12-22T01:47:21.352Z,99495.84
2018-12-22T01:49:51.833Z,99493.02
2018-12-22T01:52:22.358Z,99500.86
2018-12-22T01:54:52.806Z,99503.83
2018-12-22T01:57:23.482Z,99502.67
2018-12-22T01:59:53.925Z,99504.30
2018-12-22T02:02:24.590Z,99501.41
2018-12-22T02:04:55.057Z,99506.47
2018-12-22T02:07:25.581Z,99494.36
2018-12-22T02:09:56.079Z,99497.70
2018-12-22T02:12:26.491Z,99486.20
2018-12-22T02:14:56.990Z,99489.75
2018-12-22T02:17:27.469Z,99487.36
2018-12-22T02:19:57.930Z,99483.05
2018-12-22T02:22:28.437Z,99477.55
2018-12-22T02:24:58.857Z,99486.11
2018-12-22T02:27:29.316Z,99475.23
2018-12-22T02:29:59.757Z,99468.84
2018-12-22T02:32:30.234Z,99468.98
2018-12-22T02:35:00.681Z,99465.91
2018-12-22T02:37:31.186Z,99462.36
2018-12-22T02:40:01.637Z,99460.00
2018-12-22T02:42:32.118Z,99457.86
2018-12-22T02:45:02.622Z,99451.13
2018-12-22T02:47:33.163Z,99453.00
2018-12-22T02:50:03.730Z,99449.91
2018-12-22T02:52:34.192Z,99447.98
2018-12-22T02:55:05.214Z,99439.28
2018-12-22T02:57:35.642Z,99441.81
2018-12-22T03:00:09.839Z,99436.00
2018-12-22T03:02:40.248Z,99432.86
2018-12-22T03:05:10.773Z,99432.95
2018-12-22T03:07:41.271Z,99429.89
2018-12-22T03:10:11.789Z,99427.94
2018-12-22T03:12:42.274Z,99416.41
2018-12-22T03:15:12.830Z,99404.64
2018-12-22T03:17:43.312Z,99406.30
2018-12-22T03:20:13.903Z,99395.63
2018-12-22T03:22:44.440Z,99390.53
2018-12-22T03:25:14.907Z,99384.27
2018-12-22T03:27:45.390Z,99380.88
2018-12-22T03:30:15.892Z,99373.94
2018-12-22T03:32:46.485Z,99373.33
2018-12-22T03:35:17.056Z,99357.38
2018-12-22T03:37:47.543Z,99352.87
2018-12-22T03:40:18.041Z,99348.53
2018-12-22T03:42:48.505Z,99336.55
2018-12-22T03:45:19.035Z,99329.13
2018-12-22T03:47:49.535Z,99322.95
2018-12-22T03:50:19.934Z,99322.39
2018-12-22T03:52:50.427Z,99325.13
2018-12-22T03:55:20.912Z,99345.95
2018-12-22T03:57:51.372Z,99347.73
2018-12-22T04:00:21.891Z,99343.42
2018-12-22T04:02:52.504Z,99331.95
2018-12-22T04:05:23.027Z,99329.33
2018-12-22T04:07:53.509Z,99324.83
2018-12-22T04:10:24.351Z,99323.95
2018-12-22T04:12:54.863Z,99323.41
2018-12-22T04:15:25.426Z,99328.52
2018-12-22T04:17:55.953Z,99298.50
2018-12-22T04:20:26.778Z,99306.98
2018-12-22T04:22:57.895Z,99290.50
2018-12-22T04:25:28.590Z,99296.01
2018-12-22T04:27:59.327Z,99294.53
2018-12-22T04:30:30.104Z,99296.52
2018-12-22T04:33:00.571Z,99297.57
2018-12-22T04:35:31.618Z,99308.19
2018-12-22T04:38:02.145Z,99315.56
2018-12-22T04:40:33.037Z,99309.95
2018-12-22T04:43:03.647Z,99319.72
2018-12-22T04:45:34.427Z,99310.26
2018-12-22T04:48:05.797Z,99317.13
2018-12-22T04:50:37.162Z,99316.07
2018-12-22T04:53:07.730Z,99307.67
2018-12-22T04:55:38.282Z,99315.52
2018-12-22T04:58:08.800Z,99312.17
2018-12-22T05:00:39.943Z,99313.03
2018-12-22T05:03:11.855Z,99321.58
2018-12-22T05:05:43.224Z,99324.87
2018-12-22T05:08:13.732Z,99328.56
2018-12-22T05:10:44.139Z,99331.58
2018-12-22T05:13:14.630Z,99332.08
2018-12-22T05:15:45.239Z,99330.70
2018-12-22T05:18:15.757Z,99336.29
2018-12-22T05:20:46.248Z,99333.30
2018-12-22T05:23:17.007Z,99338.30
2018-12-22T05:25:47.620Z,99326.92
2018-12-22T05:28:18.139Z,99342.50
2018-12-22T05:30:48.625Z,99355.66
2018-12-22T05:33:19.244Z,99340.53
2018-12-22T05:35:49.683Z,99363.48
2018-12-22T05:38:20.213Z,99365.46
2018-12-22T05:40:50.722Z,99374.67
2018-12-22T05:43:22.668Z,99385.30
2018-12-22T05:45:58.479Z,99394.50
2018-12-22T05:48:28.947Z,99393.65
2018-12-22T05:50:59.441Z,99400.78
2018-12-22T05:53:30.955Z,99405.03
2018-12-22T05:56:01.685Z,99406.48
2018-12-22T05:58:32.824Z,99408.88
2018-12-22T06:01:03.375Z,99435.93
2018-12-22T06:03:33.946Z,99419.13
2018-12-22T06:06:04.619Z,99425.47
2018-12-22T06:08:35.200Z,99422.58
2018-12-22T06:11:05.618Z,99418.43
2018-12-22T06:13:36.236Z,99435.88
2018-12-22T06:16:06.778Z,99439.13
2018-12-22T06:18:37.367Z,99427.28
2018-12-22T06:21:07.906Z,99436.43
2018-12-22T06:23:38.446Z,99446.20
2018-12-22T06:26:08.941Z,99451.47
2018-12-22T06:28:39.486Z,99444.63
2018-12-22T06:31:10.078Z,99452.33
2018-12-22T06:33:40.583Z,99453.28
2018-12-22T06:36:11.194Z,99462.08
2018-12-22T06:38:41.718Z,99480.20
2018-12-22T06:41:12.205Z,99474.87
2018-12-22T06:43:42.775Z,99481.06
2018-12-22T06:46:13.260Z,99482.37
2018-12-22T06:48:43.757Z,99479.62
2018-12-22T06:51:14.230Z,99485.52
2018-12-22T06:53:44.741Z,99515.42
2018-12-22T06:56:15.218Z,99508.08
2018-12-22T06:58:45.668Z,99524.12
2018-12-22T07:01:16.144Z,99526.67
2018-12-22T07:03:46.724Z,99537.27
2018-12-22T07:06:17.603Z,99547.97
2018-12-22T07:08:48.093Z,99542.11
2018-12-22T07:11:18.540Z,99555.91
2018-12-22T07:13:49.022Z,99561.97
2018-12-22T07:16:19.503Z,99577.97
2018-12-22T07:18:49.928Z,99563.70
2018-12-22T07:21:20.389Z,99579.28
2018-12-22T07:23:50.834Z,99590.75
2018-12-22T07:26:21.280Z,99604.36
2018-12-22T07:28:51.733Z,99606.95
2018-12-22T07:31:22.175Z,99615.45
2018-12-22T07:33:52.644Z,99622.58
2018-12-22T07:36:25.245Z,99626.92
2018-12-22T07:38:55.715Z,99629.16
2018-12-22T07:41:26.239Z,99627.77
2018-12-22T07:43:56.976Z,99643.70
2018-12-22T07:46:27.404Z,99652.59
2018-12-22T07:48:57.888Z,99657.55
2018-12-22T07:51:28.450Z,99652.92
2018-12-22T07:53:59.035Z,99643.72
2018-12-22T07:56:29.524Z,99667.76
2018-12-22T07:58:59.971Z,99641.77
2018-12-22T08:01:30.458Z,99675.88
2018-12-22T08:04:01.017Z,99690.28
2018-12-22T08:06:31.568Z,99687.88
2018-12-22T08:09:02.107Z,99697.69
2018-12-22T08:11:32.626Z,99698.69
2018-12-22T08:14:03.369Z,99703.03
2018-12-22T08:16:33.862Z,99718.81
2018-12-22T08:19:05.819Z,99718.89
2018-12-22T08:21:36.322Z,99730.78
2018-12-22T08:24:06.769Z,99728.78
2018-12-22T08:26:37.530Z,99734.73
2018-12-22T08:29:07.990Z,99740.70
2018-12-22T08:31:38.704Z,99739.67
2018-12-22T08:34:09.527Z,99749.91
2018-12-22T08:36:40.095Z,99763.05
2018-12-22T08:39:10.542Z,99761.80
2018-12-22T08:41:41.072Z,99776.90
2018-12-22T08:44:11.918Z,99765.92
2018-12-22T08:46:42.358Z,99797.70
2018-12-22T08:49:12.778Z,99800.89
2018-12-22T08:51:43.251Z,99804.38
2018-12-22T08:54:14.738Z,99812.64
2018-12-22T08:56:45.601Z,99829.05
2018-12-22T08:59:16.090Z,99831.35
2018-12-22T09:01:46.520Z,99843.05
2018-12-22T09:04:17.026Z,99850.78
2018-12-22T09:06:47.567Z,99859.84
2018-12-22T09:09:18.032Z,99880.20
2018-12-22T09:11:48.536Z,99880.55
2018-12-22T09:14:18.995Z,99890.74
2018-12-22T09:16:49.511Z,99896.24
2018-12-22T09:19:19.995Z,99899.52
2018-12-22T09:21:50.462Z,99909.95
2018-12-22T09:24:20.903Z,99909.74
2018-12-22T09:26:51.913Z,99904.33
2018-12-22T09:29:22.372Z,99926.47
2018-12-22T09:31:52.784Z,99928.00
2018-12-22T09:34:23.333Z,99940.61
2018-12-22T09:36:53.828Z,99939.67
2018-12-22T09:39:24.392Z,99946.20
2018-12-22T09:41:54.974Z,99950.70
2018-12-22T09:44:25.423Z,99953.88
2018-12-22T09:46:55.950Z,99960.84
2018-12-22T09:49:26.408Z,99965.66
2018-12-22T09:51:56.867Z,99965.73
2018-12-22T09:54:27.341Z,99967.05
2018-12-22T09:56:57.926Z,99973.23
2018-12-22T09:59:28.385Z,99982.76
2018-12-22T10:01:58.850Z,99982.97
2018-12-22T10:04:29.304Z,99992.50
2018-12-22T10:06:59.700Z,99991.86
2018-12-22T10:09:30.233Z,99986.33
2018-12-22T10:12:00.695Z,99990.95
2018-12-22T10:14:31.160Z,99986.33
2018-12-22T10:17:01.698Z,100007.11
2018-12-22T10:19:32.138Z,100000.19
2018-12-22T10:22:02.649Z,100001.50
2018-12-22T10:24:33.180Z,99999.94
2018-12-22T10:27:03.655Z,99998.75
2018-12-22T10:29:34.077Z,100004.67
2018-12-22T10:32:04.592Z,100005.12
2018-12-22T10:34:35.208Z,100010.50
2018-12-22T10:37:05.658Z,100015.11
2018-12-22T10:39:36.173Z,100018.80
2018-12-22T10:42:06.696Z,100026.94
2018-12-22T10:44:37.335Z,100026.94
2018-12-22T10:47:09.156Z,100020.03
2018-12-22T10:49:39.783Z,100027.47
2018-12-22T10:52:10.284Z,100031.13
2018-12-22T10:54:40.779Z,100023.47
2018-12-22T10:57:11.219Z,100022.56
2018-12-22T10:59:41.714Z,100026.30
2018-12-22T11:02:12.269Z,100036.34
2018-12-22T11:04:42.775Z,100029.92
2018-12-22T11:07:13.391Z,100040.16
2018-12-22T11:09:44.007Z,100037.28
2018-12-22T11:12:14.491Z,100033.84
2018-12-22T11:14:45.028Z,100036.89
2018-12-22T11:17:15.548Z,100040.45
2018-12-22T11:19:46.045Z,100043.59
2018-12-22T11:22:16.563Z,100038.92
2018-12-22T11:24:47.075Z,100043.03
2018-12-22T11:27:17.564Z,100038.98
2018-12-22T11:29:48.094Z,100041.98
2018-12-22T11:32:18.646Z,100039.67
2018-12-22T11:34:49.135Z,100034.19
2018-12-22T11:37:19.602Z,100038.27
2018-12-22T11:39:50.309Z,100026.92
2018-12-22T11:42:20.756Z,100032.61
2018-12-22T11:44:51.666Z,100023.61
2018-12-22T11:47:36.604Z,100027.55
2018-12-22T11:50:11.912Z,100027.16
2018-12-22T11:52:42.440Z,100030.66
2018-12-22T11:55:12.873Z,100029.80
2018-12-22T11:57:43.422Z,100032.52
2018-12-22T12:00:14.048Z,100032.22
2018-12-22T12:02:44.921Z,100023.20
2018-12-22T12:05:15.384Z,100042.61
2018-12-22T12:07:46.022Z,100039.52
2018-12-22T12:10:16.493Z,100045.78
2018-12-22T12:12:47.064Z,100046.87
2018-12-22T12:15:22.863Z,100050.74
2018-12-22T12:20:01.711Z,100057.87
2018-12-22T12:22:32.155Z,100060.56
2018-12-22T12:25:02.636Z,100103.27
2018-12-22T12:27:33.127Z,100131.05
2018-12-22T12:30:06.220Z,100106.48
2018-12-22T12:32:36.683Z,100102.43
2018-12-22T12:35:08.032Z,100113.23
2018-12-22T12:37:38.604Z,100107.43
2018-12-22T12:40:12.527Z,100116.86
2018-12-22T12:42:42.964Z,100119.74
2018-12-22T12:45:15.126Z,100125.44
2018-12-22T12:47:47.207Z,100140.86
2018-12-22T12:50:20.989Z,100138.13
2018-12-22T12:52:51.596Z,100108.89
2018-12-22T12:55:21.999Z,100119.55
2018-12-22T12:57:52.467Z,100130.24
2018-12-22T13:00:23.083Z,100138.66
2018-12-22T13:02:53.512Z,100143.27
2018-12-22T13:05:23.967Z,100142.86
2018-12-22T13:07:54.538Z,100145.27
2018-12-22T13:10:25.042Z,100145.76
2018-12-22T13:14:07.932Z,100147.75
2018-12-22T13:16:38.702Z,100147.64
2018-12-22T13:19:09.227Z,100142.08
2018-12-22T13:21:42.188Z,100152.86
2018-12-22T13:24:12.783Z,100152.28
2018-12-22T13:26:43.266Z,100150.92
2018-12-22T13:29:13.712Z,100151.52
2018-12-22T13:31:45.578Z,100155.72
2018-12-22T13:34:16.016Z,100156.38
2018-12-22T13:36:46.441Z,100156.77
2018-12-22T13:39:20.681Z,100155.75
2018-12-22T13:41:51.081Z,100153.08
2018-12-22T13:44:21.644Z,100157.73
2018-12-22T13:46:52.119Z,100151.08
2018-12-22T13:49:22.651Z,100161.55
2018-12-22T13:51:53.185Z,100163.73
2018-12-22T13:54:26.595Z,100173.73
2018-12-22T13:56:57.083Z,100176.41
2018-12-22T13:59:27.565Z,100193.97
2018-12-22T14:02:02.342Z,100189.41
2018-12-22T14:04:36.206Z,100200.60
2018-12-22T14:07:10.248Z,100210.34
2018-12-22T14:09:40.800Z,100207.84
2018-12-22T14:12:11.363Z,100214.24
2018-12-22T14:14:43.071Z,100220.16
2018-12-22T14:17:19.674Z,100225.88
2018-12-22T14:20:13.548Z,100223.98
2018-12-22T14:22:44.859Z,100219.97
2018-12-22T14:25:27.834Z,100228.06
2018-12-22T14:27:58.327Z,100228.25
2018-12-22T14:30:28.881Z,100235.61
2018-12-22T14:32:59.400Z,100238.59
2018-12-22T14:35:39.625Z,100243.77
2018-12-22T14:38:10.103Z,100243.84
2018-12-22T14:40:40.615Z,100258.12
2018-12-22T14:43:11.126Z,100271.92
2018-12-22T14:45:41.619Z,100283.12
2018-12-22T14:48:12.138Z,100272.13
2018-12-22T14:50:42.622Z,100283.77
2018-12-22T14:53:13.070Z,100288.96
2018-12-22T14:55:43.525Z,100300.20
2018-12-22T14:58:21.368Z,100298.54
2018-12-22T15:00:52.389Z,100292.94
2018-12-22T15:03:23.416Z,100300.16
2018-12-22T15:05:54.471Z,100295.22
2018-12-22T15:08:25.813Z,100303.41
2018-12-22T15:10:56.938Z,100293.41
2018-12-22T15:13:27.910Z,100295.84
2018-12-22T15:15:59.274Z,100298.58
2018-12-22T15:18:30.058Z,100306.05
2018-12-22T15:21:01.199Z,100306.48
2018-12-22T15:23:32.082Z,100313.54
2018-12-22T15:26:02.834Z,100316.19
2018-12-22T15:28:33.232Z,100322.05
2018-12-22T15:31:04.664Z,100327.64
2018-12-22T15:33:35.320Z,100333.08
2018-12-22T15:36:06.192Z,100336.95
2018-12-22T15:38:36.984Z,100343.34
2018-12-22T15:41:07.502Z,100343.44
2018-12-22T15:43:38.099Z,100349.32
2018-12-22T15:46:08.627Z,100345.17
2018-12-22T15:48:39.802Z,100341.51
2018-12-22T15:51:10.343Z,100352.61
2018-12-22T15:53:40.814Z,100352.72
2018-12-22T15:56:11.291Z,100359.29
2018-12-22T15:58:41.827Z,100361.12
2018-12-22T16:01:12.301Z,100361.73
2018-12-22T16:03:42.743Z,100364.16
2018-12-22T16:06:13.239Z,100365.22
2018-12-22T16:08:43.738Z,100368.27
2018-12-22T16:11:14.234Z,100366.64
2018-12-22T16:13:44.642Z,100363.98
2018-12-22T16:16:15.287Z,100361.84
2018-12-22T16:18:45.725Z,100366.82
2018-12-22T16:21:16.233Z,100373.01
2018-12-22T16:23:46.849Z,100383.17
2018-12-22T16:26:18.396Z,100385.34
2018-12-22T16:29:00.302Z,100390.60
2018-12-22T16:31:30.788Z,100382.55
2018-12-22T16:34:01.238Z,100389.92
2018-12-22T16:36:31.683Z,100389.62
2018-12-22T16:39:02.195Z,100390.41
2018-12-22T16:41:32.657Z,100395.29
2018-12-22T16:44:03.499Z,100396.36
2018-12-22T16:46:33.913Z,100397.84
2018-12-22T16:49:04.390Z,100404.84
2018-12-22T16:51:34.845Z,100405.63
2018-12-22T16:54:05.574Z,100411.95
2018-12-22T16:56:36.119Z,100412.23
2018-12-22T16:59:07.047Z,100415.28
2018-12-22T17:02:00.925Z,100420.95
2018-12-22T17:04:31.609Z,100425.28
2018-12-22T17:07:02.019Z,100433.23
2018-12-22T17:09:32.540Z,100427.01
2018-12-22T17:12:02.966Z,100438.67
2018-12-22T17:14:33.418Z,100439.50
2018-12-22T17:17:03.906Z,100434.38
2018-12-22T17:19:34.407Z,100441.96
2018-12-22T17:23:16.748Z,100434.25
2018-12-22T17:25:58.234Z,100448.87
2018-12-22T17:28:28.847Z,100449.97
2018-12-22T17:30:59.754Z,100444.64
2018-12-22T17:33:30.384Z,100451.18
2018-12-22T17:36:00.942Z,100454.77
2018-12-22T17:38:31.500Z,100462.92
2018-12-22T17:41:03.046Z,100466.16
2018-12-22T17:43:33.794Z,100470.23
2018-12-22T17:46:04.371Z,100486.38
2018-12-22T17:48:34.891Z,100488.78
2018-12-22T17:51:05.379Z,100496.77
2018-12-22T17:53:35.873Z,100505.35
2018-12-22T17:56:06.585Z,100500.99
2018-12-22T17:58:37.394Z,100509.00
2018-12-22T18:01:08.112Z,100516.53
2018-12-22T18:03:39.221Z,100524.86
2018-12-22T18:06:09.817Z,100525.79
2018-12-22T18:08:40.345Z,100531.27
2018-12-22T18:11:10.834Z,100536.44
2018-12-22T18:13:41.284Z,100531.72
2018-12-22T18:16:11.935Z,100539.00
2018-12-22T18:18:42.431Z,100542.85
2018-12-22T18:21:12.967Z,100541.69
2018-12-22T18:23:43.582Z,100545.51
2018-12-22T18:26:14.136Z,100549.16
2018-12-22T18:28:44.604Z,100548.42
2018-12-22T18:31:15.156Z,100554.67
2018-12-22T18:33:45.575Z,100555.19
2018-12-22T18:36:18.446Z,100555.66
2018-12-22T18:38:48.884Z,100564.12
2018-12-22T18:41:19.377Z,100559.58
2018-12-22T18:43:49.840Z,100560.09
2018-12-22T18:46:20.418Z,100550.47
2018-12-22T18:48:50.907Z,100549.25
2018-12-22T18:51:21.398Z,100556.48
2018-12-22T18:53:52.024Z,100545.59
2018-12-22T18:56:22.548Z,100549.76
2018-12-22T18:58:53.371Z,100563.31
2018-12-22T19:01:24.038Z,100556.19
2018-12-22T19:03:54.513Z,100554.58
2018-12-22T19:06:25.280Z,100558.52
2018-12-22T19:08:59.846Z,100562.52
2018-12-22T19:11:30.402Z,100559.17
2018-12-22T19:14:00.923Z,100552.81
2018-12-22T19:16:31.442Z,100555.89
2018-12-22T19:19:01.986Z,100553.70
2018-12-22T19:21:32.528Z,100552.39
2018-12-22T19:24:33.510Z,100559.11
2018-12-22T19:27:04.163Z,100560.78
2018-12-22T19:29:34.743Z,100560.84
2018-12-22T19:32:05.216Z,100558.22
2018-12-22T19:34:35.757Z,100579.59
2018-12-22T19:37:06.337Z,100566.55
2018-12-22T19:39:36.820Z,100578.06
2018-12-22T19:42:08.232Z,100582.01
2018-12-22T19:44:39.978Z,100585.44
2018-12-22T19:47:10.456Z,100592.28
2018-12-22T19:49:41.846Z,100598.84
2018-12-22T19:52:12.336Z,100591.62
2018-12-22T19:54:42.922Z,100589.17
2018-12-22T19:57:13.387Z,100599.30
2018-12-22T19:59:44.038Z,100590.76
2018-12-22T20:02:14.474Z,100592.16
2018-12-22T20:04:45.994Z,100593.74
2018-12-22T20:07:16.469Z,100589.89
2018-12-22T20:09:46.910Z,100596.09
2018-12-22T20:12:17.397Z,100598.67
2018-12-22T20:14:47.823Z,100600.46
2018-12-22T20:17:18.344Z,100603.38
2018-12-22T20:19:48.843Z,100602.22
2018-12-22T20:22:21.213Z,100605.95
2018-12-22T20:24:51.640Z,100601.92
2018-12-22T20:27:22.280Z,100616.16
2018-12-22T20:29:52.711Z,100621.27
2018-12-22T20:32:23.276Z,100633.01
2018-12-22T20:34:53.737Z,100634.34
2018-12-22T20:37:24.218Z,100622.44
2018-12-22T20:39:54.737Z,100632.58
2018-12-22T20:42:25.162Z,100632.52
2018-12-22T20:44:55.668Z,100635.62
2018-12-22T20:47:26.123Z,100630.02
2018-12-22T20:49:56.610Z,100624.50
2018-12-22T20:52:27.092Z,100633.37
2018-12-22T20:54:57.582Z,100634.27
2018-12-22T20:57:28.043Z,100634.57
2018-12-22T20:59:58.465Z,100650.64
2018-12-22T21:02:30.856Z,100644.37
2018-12-22T21:05:01.402Z,100648.00
2018-12-22T21:07:31.866Z,100644.05
2018-12-22T21:10:02.375Z,100644.71
2018-12-22T21:12:32.808Z,100646.59
2018-12-22T21:15:03.435Z,100656.80
2018-12-22T21:17:33.930Z,100653.36
2018-12-22T21:20:04.668Z,100650.97
2018-12-22T21:22:35.217Z,100650.88
2018-12-22T21:25:06.112Z,100658.28
2018-12-22T21:27:36.611Z,100654.97
2018-12-22T21:30:07.662Z,100663.80
2018-12-22T21:32:38.237Z,100665.75
2018-12-22T21:35:08.871Z,100677.58
2018-12-22T21:37:39.386Z,100676.45
2018-12-22T21:40:10.008Z,100677.30
2018-12-22T21:42:40.550Z,100681.15
2018-12-22T21:45:11.123Z,100686.09
2018-12-22T21:47:41.610Z,100689.61
2018-12-22T21:50:12.076Z,100691.71
2018-12-22T21:52:42.542Z,100703.92
2018-12-22T21:55:12.996Z,100712.24
2018-12-22T21:57:43.490Z,100721.94
2018-12-22T22:00:13.953Z,100717.42
2018-12-22T22:02:44.456Z,100721.99
2018-12-22T22:05:14.926Z,100721.31
2018-12-22T22:07:45.392Z,100722.63
2018-12-22T22:10:15.846Z,100713.62
2018-12-22T22:12:46.274Z,100717.20
2018-12-22T22:15:16.744Z,100715.91
2018-12-22T22:17:47.233Z,100720.02
2018-12-22T22:20:17.712Z,100720.34
2018-12-22T22:22:48.169Z,100723.53
2018-12-22T22:25:18.620Z,100724.03
2018-12-22T22:27:49.216Z,100728.85
2018-12-22T22:30:20.954Z,100721.05
2018-12-22T22:32:51.552Z,100730.02
2018-12-22T22:35:22.034Z,100736.66
2018-12-22T22:37:52.520Z,100743.02
2018-12-22T22:40:23.007Z,100762.73
2018-12-22T22:42:53.434Z,100759.70
2018-12-22T22:45:23.866Z,100761.97
2018-12-22T22:47:54.317Z,100763.67
2018-12-22T22:50:24.801Z,100764.64
2018-12-22T22:52:55.270Z,100764.30
2018-12-22T22:55:25.843Z,100762.58
2018-12-22T22:57:56.388Z,100768.03
2018-12-22T23:00:36.832Z,100764.09
2018-12-22T23:03:07.344Z,100765.84
2018-12-22T23:05:38.012Z,100754.90
2018-12-22T23:08:08.521Z,100762.83
2018-12-22T23:10:39.425Z,100757.73
2018-12-22T23:13:10.066Z,100759.28
2018-12-22T23:15:40.566Z,100754.66
2018-12-22T23:18:11.128Z,100755.45
2018-12-22T23:20:41.630Z,100757.16
2018-12-22T23:23:12.154Z,100748.28
2018-12-22T23:25:42.667Z,100746.81
2018-12-22T23:28:13.121Z,100740.83
2018-12-22T23:30:43.677Z,100750.91
2018-12-22T23:33:14.145Z,100747.02
2018-12-22T23:35:45.346Z,100754.98
2018-12-22T23:38:15.817Z,100746.66
2018-12-22T23:40:46.322Z,100753.84
2018-12-22T23:43:16.811Z,100761.28
2018-12-22T23:45:47.437Z,100758.63
2018-12-22T23:48:17.945Z,100754.09
2018-12-22T23:50:48.420Z,100760.77
2018-12-22T23:53:18.875Z,100761.97
2018-12-22T23:55:49.403Z,100764.22
2018-12-22T23:58:19.821Z,100771.03
